sensor_id;sensor_type;location;lat;lon;timestamp;temperature;humidity
9167;DHT22;4618;48.818;9.088;2023-05-15T00:00:34;9.10;99.90
9167;DHT22;4618;48.818;9.088;2023-05-15T00:03:01;9.00;1.00
9167;DHT22;4618;48.818;9.088;2023-05-15T00:05:27;8.90;1.00
9167;DHT22;4618;48.818;9.088;2023-05-15T00:07:52;9.00;1.00
9167;DHT22;4618;48.818;9.088;2023-05-15T00:10:18;9.20;1.00
9167;DHT22;4618;48.818;9.088;2023-05-15T00:12:43;9.10;1.00
9167;DHT22;4618;48.818;9.088;2023-05-15T00:15:09;9.20;1.00
9167;DHT22;4618;48.818;9.088;2023-05-15T00:17:34;9.20;1.00
9167;DHT22;4618;48.818;9.088;2023-05-15T00:20:00;9.20;1.00
9167;DHT22;4618;48.818;9.088;2023-05-15T00:22:25;9.20;99.90
9167;DHT22;4618;48.818;9.088;2023-05-15T00:24:51;9.10;99.90
9167;DHT22;4618;48.818;9.088;2023-05-15T00:27:17;9.10;99.90
9167;DHT22;4618;48.818;9.088;2023-05-15T00:29:42;9.10;1.00
9167;DHT22;4618;48.818;9.088;2023-05-15T00:32:08;8.90;1.00
9167;DHT22;4618;48.818;9.088;2023-05-15T00:34:33;8.90;1.00
9167;DHT22;4618;48.818;9.088;2023-05-15T00:36:58;9.00;1.00
9167;DHT22;4618;48.818;9.088;2023-05-15T00:39:24;9.10;1.00
9167;DHT22;4618;48.818;9.088;2023-05-15T00:41:50;9.10;1.00
9167;DHT22;4618;48.818;9.088;2023-05-15T00:44:16;9.20;1.00
9167;DHT22;4618;48.818;9.088;2023-05-15T00:46:44;9.30;1.00
9167;DHT22;4618;48.818;9.088;2023-05-15T00:49:10;9.50;99.90
9167;DHT22;4618;48.818;9.088;2023-05-15T00:51:39;9.60;1.00
9167;DHT22;4618;48.818;9.088;2023-05-15T00:54:05;9.70;99.90
9167;DHT22;4618;48.818;9.088;2023-05-15T00:56:31;9.60;99.90
9167;DHT22;4618;48.818;9.088;2023-05-15T00:58:57;9.50;99.90
9167;DHT22;4618;48.818;9.088;2023-05-15T01:01:24;9.30;1.00
9167;DHT22;4618;48.818;9.088;2023-05-15T01:03:49;9.20;41.30
9167;DHT22;4618;48.818;9.088;2023-05-15T01:06:15;9.10;99.90
9167;DHT22;4618;48.818;9.088;2023-05-15T01:08:41;9.10;99.90
9167;DHT22;4618;48.818;9.088;2023-05-15T01:11:08;9.20;99.90
9167;DHT22;4618;48.818;9.088;2023-05-15T01:13:34;9.10;1.00
9167;DHT22;4618;48.818;9.088;2023-05-15T01:15:59;9.10;76.80
9167;DHT22;4618;48.818;9.088;2023-05-15T01:18:25;9.10;99.90
9167;DHT22;4618;48.818;9.088;2023-05-15T01:26:02;9.00;99.90
9167;DHT22;4618;48.818;9.088;2023-05-15T01:28:36;9.00;99.90
9167;DHT22;4618;48.818;9.088;2023-05-15T01:31:05;8.90;99.90
9167;DHT22;4618;48.818;9.088;2023-05-15T01:33:33;9.10;1.00
9167;DHT22;4618;48.818;9.088;2023-05-15T01:36:05;9.20;1.00
9167;DHT22;4618;48.818;9.088;2023-05-15T01:39:05;9.40;99.90
9167;DHT22;4618;48.818;9.088;2023-05-15T01:43:56;9.30;99.90
9167;DHT22;4618;48.818;9.088;2023-05-15T01:46:22;9.40;99.90
9167;DHT22;4618;48.818;9.088;2023-05-15T01:48:49;9.40;99.90
9167;DHT22;4618;48.818;9.088;2023-05-15T01:51:16;9.50;99.90
9167;DHT22;4618;48.818;9.088;2023-05-15T01:53:42;9.40;99.90
9167;DHT22;4618;48.818;9.088;2023-05-15T01:56:08;9.40;1.00
9167;DHT22;4618;48.818;9.088;2023-05-15T01:58:33;9.40;22.90
9167;DHT22;4618;48.818;9.088;2023-05-15T02:01:01;9.50;1.00
9167;DHT22;4618;48.818;9.088;2023-05-15T02:03:26;9.50;1.00
9167;DHT22;4618;48.818;9.088;2023-05-15T02:05:52;9.50;1.00
9167;DHT22;4618;48.818;9.088;2023-05-15T02:08:20;9.40;1.00
9167;DHT22;4618;48.818;9.088;2023-05-15T02:10:46;9.40;1.00
9167;DHT22;4618;48.818;9.088;2023-05-15T02:13:13;9.40;1.00
9167;DHT22;4618;48.818;9.088;2023-05-15T02:15:39;9.30;1.00
9167;DHT22;4618;48.818;9.088;2023-05-15T02:18:04;9.30;93.40
9167;DHT22;4618;48.818;9.088;2023-05-15T02:20:30;9.30;99.90
9167;DHT22;4618;48.818;9.088;2023-05-15T02:22:56;9.30;99.90
9167;DHT22;4618;48.818;9.088;2023-05-15T02:25:24;9.20;99.90
9167;DHT22;4618;48.818;9.088;2023-05-15T02:27:56;9.30;1.00
9167;DHT22;4618;48.818;9.088;2023-05-15T02:30:37;9.30;1.00
9167;DHT22;4618;48.818;9.088;2023-05-15T02:38:43;9.50;60.10
9167;DHT22;4618;48.818;9.088;2023-05-15T02:41:10;9.50;1.00
9167;DHT22;4618;48.818;9.088;2023-05-15T02:43:36;9.50;1.00
9167;DHT22;4618;48.818;9.088;2023-05-15T02:46:03;9.50;1.00
9167;DHT22;4618;48.818;9.088;2023-05-15T02:48:29;9.50;1.00
9167;DHT22;4618;48.818;9.088;2023-05-15T02:50:55;9.60;69.80
9167;DHT22;4618;48.818;9.088;2023-05-15T02:53:21;9.60;99.90
9167;DHT22;4618;48.818;9.088;2023-05-15T02:55:47;9.60;99.90
9167;DHT22;4618;48.818;9.088;2023-05-15T02:58:12;9.60;99.90
9167;DHT22;4618;48.818;9.088;2023-05-15T03:00:38;9.70;1.00
9167;DHT22;4618;48.818;9.088;2023-05-15T03:03:03;9.70;1.00
9167;DHT22;4618;48.818;9.088;2023-05-15T03:05:29;9.80;1.00
9167;DHT22;4618;48.818;9.088;2023-05-15T03:07:55;9.80;1.00
9167;DHT22;4618;48.818;9.088;2023-05-15T03:10:21;9.80;1.00
9167;DHT22;4618;48.818;9.088;2023-05-15T03:12:48;9.80;1.00
9167;DHT22;4618;48.818;9.088;2023-05-15T03:15:13;9.80;1.00
9167;DHT22;4618;48.818;9.088;2023-05-15T03:17:39;9.80;99.90
9167;DHT22;4618;48.818;9.088;2023-05-15T03:20:05;9.80;99.90
9167;DHT22;4618;48.818;9.088;2023-05-15T03:22:30;10.00;99.90
9167;DHT22;4618;48.818;9.088;2023-05-15T03:24:56;10.00;99.90
9167;DHT22;4618;48.818;9.088;2023-05-15T03:27:21;10.10;99.90
9167;DHT22;4618;48.818;9.088;2023-05-15T03:29:47;10.10;1.00
9167;DHT22;4618;48.818;9.088;2023-05-15T03:32:15;10.20;1.00
9167;DHT22;4618;48.818;9.088;2023-05-15T03:34:40;10.40;99.90
9167;DHT22;4618;48.818;9.088;2023-05-15T03:37:06;10.50;99.90
9167;DHT22;4618;48.818;9.088;2023-05-15T03:39:31;10.50;99.90
9167;DHT22;4618;48.818;9.088;2023-05-15T03:41:57;10.50;99.90
9167;DHT22;4618;48.818;9.088;2023-05-15T03:44:22;10.50;99.90
9167;DHT22;4618;48.818;9.088;2023-05-15T03:46:48;10.50;99.90
9167;DHT22;4618;48.818;9.088;2023-05-15T03:49:13;10.40;1.00
9167;DHT22;4618;48.818;9.088;2023-05-15T03:51:39;10.20;1.00
9167;DHT22;4618;48.818;9.088;2023-05-15T03:54:05;10.10;1.00
9167;DHT22;4618;48.818;9.088;2023-05-15T03:56:31;10.10;69.10
9167;DHT22;4618;48.818;9.088;2023-05-15T03:58:57;10.10;99.90
9167;DHT22;4618;48.818;9.088;2023-05-15T04:01:22;10.10;99.90
9167;DHT22;4618;48.818;9.088;2023-05-15T04:03:48;10.00;99.90
9167;DHT22;4618;48.818;9.088;2023-05-15T04:06:13;10.10;99.90
9167;DHT22;4618;48.818;9.088;2023-05-15T04:08:39;10.20;99.90
9167;DHT22;4618;48.818;9.088;2023-05-15T04:11:04;10.40;99.90
9167;DHT22;4618;48.818;9.088;2023-05-15T04:13:30;10.50;1.00
9167;DHT22;4618;48.818;9.088;2023-05-15T04:15:55;10.60;1.00
9167;DHT22;4618;48.818;9.088;2023-05-15T04:18:21;10.80;1.00
9167;DHT22;4618;48.818;9.088;2023-05-15T04:20:46;10.80;1.00
9167;DHT22;4618;48.818;9.088;2023-05-15T04:23:12;10.80;1.00
9167;DHT22;4618;48.818;9.088;2023-05-15T04:25:37;10.90;1.00
9167;DHT22;4618;48.818;9.088;2023-05-15T04:28:03;10.90;1.00
9167;DHT22;4618;48.818;9.088;2023-05-15T04:30:29;11.00;1.00
9167;DHT22;4618;48.818;9.088;2023-05-15T04:32:55;11.00;1.00
9167;DHT22;4618;48.818;9.088;2023-05-15T04:35:20;11.00;1.00
9167;DHT22;4618;48.818;9.088;2023-05-15T04:37:46;11.10;1.00
9167;DHT22;4618;48.818;9.088;2023-05-15T04:40:11;11.20;99.90
9167;DHT22;4618;48.818;9.088;2023-05-15T04:42:39;11.30;99.90
9167;DHT22;4618;48.818;9.088;2023-05-15T04:45:05;11.20;1.00
9167;DHT22;4618;48.818;9.088;2023-05-15T04:47:31;11.30;1.00
9167;DHT22;4618;48.818;9.088;2023-05-15T04:49:56;11.30;99.90
9167;DHT22;4618;48.818;9.088;2023-05-15T04:52:22;11.50;99.90
9167;DHT22;4618;48.818;9.088;2023-05-15T04:54:47;11.60;1.00
9167;DHT22;4618;48.818;9.088;2023-05-15T04:57:15;11.70;1.00
9167;DHT22;4618;48.818;9.088;2023-05-15T04:59:40;11.70;1.00
9167;DHT22;4618;48.818;9.088;2023-05-15T05:02:07;11.80;1.00
9167;DHT22;4618;48.818;9.088;2023-05-15T05:04:33;11.80;1.00
9167;DHT22;4618;48.818;9.088;2023-05-15T05:06:58;11.90;1.00
9167;DHT22;4618;48.818;9.088;2023-05-15T05:09:24;11.90;1.00
9167;DHT22;4618;48.818;9.088;2023-05-15T05:11:50;12.00;1.00
9167;DHT22;4618;48.818;9.088;2023-05-15T05:14:15;12.10;1.00
9167;DHT22;4618;48.818;9.088;2023-05-15T05:16:43;12.30;1.00
9167;DHT22;4618;48.818;9.088;2023-05-15T05:19:08;12.30;99.90
9167;DHT22;4618;48.818;9.088;2023-05-15T05:21:34;12.40;99.90
9167;DHT22;4618;48.818;9.088;2023-05-15T05:23:59;12.60;25.50
9167;DHT22;4618;48.818;9.088;2023-05-15T05:26:25;12.60;1.00
9167;DHT22;4618;48.818;9.088;2023-05-15T05:28:51;12.70;1.00
9167;DHT22;4618;48.818;9.088;2023-05-15T05:31:16;12.70;1.00
9167;DHT22;4618;48.818;9.088;2023-05-15T05:33:42;12.70;1.00
9167;DHT22;4618;48.818;9.088;2023-05-15T05:36:07;12.60;1.00
9167;DHT22;4618;48.818;9.088;2023-05-15T05:38:33;12.70;1.00
9167;DHT22;4618;48.818;9.088;2023-05-15T05:40:58;12.80;1.00
9167;DHT22;4618;48.818;9.088;2023-05-15T05:43:25;12.90;1.00
9167;DHT22;4618;48.818;9.088;2023-05-15T05:45:51;12.90;1.00
9167;DHT22;4618;48.818;9.088;2023-05-15T05:48:16;13.10;1.00
9167;DHT22;4618;48.818;9.088;2023-05-15T05:50:42;13.20;1.00
9167;DHT22;4618;48.818;9.088;2023-05-15T05:53:07;13.30;99.90
9167;DHT22;4618;48.818;9.088;2023-05-15T05:55:33;13.30;99.90
9167;DHT22;4618;48.818;9.088;2023-05-15T05:57:58;13.40;1.00
9167;DHT22;4618;48.818;9.088;2023-05-15T06:00:24;13.50;99.90
9167;DHT22;4618;48.818;9.088;2023-05-15T06:02:51;13.60;94.80
9167;DHT22;4618;48.818;9.088;2023-05-15T06:05:19;13.50;1.00
9167;DHT22;4618;48.818;9.088;2023-05-15T06:07:44;13.50;1.00
9167;DHT22;4618;48.818;9.088;2023-05-15T06:10:10;13.50;1.00
9167;DHT22;4618;48.818;9.088;2023-05-15T06:12:37;13.60;33.90
9167;DHT22;4618;48.818;9.088;2023-05-15T06:15:02;13.60;1.00
9167;DHT22;4618;48.818;9.088;2023-05-15T06:17:28;13.70;1.00
9167;DHT22;4618;48.818;9.088;2023-05-15T06:19:53;13.70;1.00
9167;DHT22;4618;48.818;9.088;2023-05-15T06:22:19;13.80;1.00
9167;DHT22;4618;48.818;9.088;2023-05-15T06:24:44;13.70;1.00
9167;DHT22;4618;48.818;9.088;2023-05-15T06:27:10;13.60;1.00
9167;DHT22;4618;48.818;9.088;2023-05-15T06:29:35;13.70;1.00
9167;DHT22;4618;48.818;9.088;2023-05-15T06:32:01;13.80;1.00
9167;DHT22;4618;48.818;9.088;2023-05-15T06:34:26;13.80;1.00
9167;DHT22;4618;48.818;9.088;2023-05-15T06:36:52;13.90;99.90
9167;DHT22;4618;48.818;9.088;2023-05-15T06:39:17;13.90;99.90
9167;DHT22;4618;48.818;9.088;2023-05-15T06:41:43;14.00;99.90
9167;DHT22;4618;48.818;9.088;2023-05-15T06:44:08;14.10;99.90
9167;DHT22;4618;48.818;9.088;2023-05-15T06:46:34;14.30;1.00
9167;DHT22;4618;48.818;9.088;2023-05-15T06:48:59;14.40;99.90
9167;DHT22;4618;48.818;9.088;2023-05-15T06:51:24;14.50;99.90
9167;DHT22;4618;48.818;9.088;2023-05-15T06:53:50;14.50;1.00
9167;DHT22;4618;48.818;9.088;2023-05-15T06:56:15;14.50;1.00
9167;DHT22;4618;48.818;9.088;2023-05-15T06:58:41;14.60;1.00
9167;DHT22;4618;48.818;9.088;2023-05-15T07:01:07;14.70;1.00
9167;DHT22;4618;48.818;9.088;2023-05-15T07:03:33;14.80;1.00
9167;DHT22;4618;48.818;9.088;2023-05-15T07:05:58;14.80;42.50
9167;DHT22;4618;48.818;9.088;2023-05-15T07:08:24;14.80;1.00
9167;DHT22;4618;48.818;9.088;2023-05-15T07:10:49;14.90;1.00
9167;DHT22;4618;48.818;9.088;2023-05-15T07:13:15;14.80;93.60
9167;DHT22;4618;48.818;9.088;2023-05-15T07:15:42;14.90;1.00
9167;DHT22;4618;48.818;9.088;2023-05-15T07:18:07;14.90;99.90
9167;DHT22;4618;48.818;9.088;2023-05-15T07:20:33;14.90;44.60
9167;DHT22;4618;48.818;9.088;2023-05-15T07:22:58;14.90;1.00
9167;DHT22;4618;48.818;9.088;2023-05-15T07:25:24;14.90;1.00
9167;DHT22;4618;48.818;9.088;2023-05-15T07:27:49;15.20;1.00
9167;DHT22;4618;48.818;9.088;2023-05-15T07:30:15;15.30;1.00
9167;DHT22;4618;48.818;9.088;2023-05-15T07:32:41;15.50;99.90
9167;DHT22;4618;48.818;9.088;2023-05-15T07:35:07;15.70;99.90
9167;DHT22;4618;48.818;9.088;2023-05-15T07:37:32;16.00;99.90
9167;DHT22;4618;48.818;9.088;2023-05-15T07:39:58;16.20;1.00
9167;DHT22;4618;48.818;9.088;2023-05-15T07:42:24;16.40;1.00
9167;DHT22;4618;48.818;9.088;2023-05-15T07:44:49;16.60;1.00
9167;DHT22;4618;48.818;9.088;2023-05-15T07:47:15;17.00;1.00
9167;DHT22;4618;48.818;9.088;2023-05-15T07:49:41;17.60;1.00
9167;DHT22;4618;48.818;9.088;2023-05-15T07:52:06;17.90;99.90
9167;DHT22;4618;48.818;9.088;2023-05-15T07:54:32;18.10;1.00
9167;DHT22;4618;48.818;9.088;2023-05-15T07:56:57;18.20;99.90
9167;DHT22;4618;48.818;9.088;2023-05-15T07:59:23;18.40;99.90
9167;DHT22;4618;48.818;9.088;2023-05-15T08:01:48;18.80;99.90
9167;DHT22;4618;48.818;9.088;2023-05-15T08:04:14;19.30;1.00
9167;DHT22;4618;48.818;9.088;2023-05-15T08:06:39;19.10;1.00
9167;DHT22;4618;48.818;9.088;2023-05-15T08:09:07;19.30;99.90
9167;DHT22;4618;48.818;9.088;2023-05-15T08:11:32;19.70;99.90
9167;DHT22;4618;48.818;9.088;2023-05-15T08:13:58;19.70;99.90
9167;DHT22;4618;48.818;9.088;2023-05-15T08:16:23;19.90;99.90
9167;DHT22;4618;48.818;9.088;2023-05-15T08:18:49;19.80;99.90
9167;DHT22;4618;48.818;9.088;2023-05-15T08:21:17;20.10;99.90
9167;DHT22;4618;48.818;9.088;2023-05-15T08:23:43;20.30;93.60
9167;DHT22;4618;48.818;9.088;2023-05-15T08:26:08;20.60;99.90
9167;DHT22;4618;48.818;9.088;2023-05-15T08:28:34;20.80;38.20
9167;DHT22;4618;48.818;9.088;2023-05-15T08:31:00;20.70;10.00
9167;DHT22;4618;48.818;9.088;2023-05-15T08:33:25;21.50;1.00
9167;DHT22;4618;48.818;9.088;2023-05-15T08:35:51;21.10;1.00
9167;DHT22;4618;48.818;9.088;2023-05-15T08:38:17;20.50;1.00
9167;DHT22;4618;48.818;9.088;2023-05-15T08:40:45;20.60;1.00
9167;DHT22;4618;48.818;9.088;2023-05-15T08:43:12;21.10;1.00
9167;DHT22;4618;48.818;9.088;2023-05-15T08:45:39;21.40;1.00
9167;DHT22;4618;48.818;9.088;2023-05-15T08:48:11;21.30;1.00
9167;DHT22;4618;48.818;9.088;2023-05-15T08:50:38;21.30;1.00
9167;DHT22;4618;48.818;9.088;2023-05-15T08:53:05;21.10;1.00
9167;DHT22;4618;48.818;9.088;2023-05-15T08:55:31;21.70;1.00
9167;DHT22;4618;48.818;9.088;2023-05-15T08:57:57;22.40;1.00
9167;DHT22;4618;48.818;9.088;2023-05-15T09:00:24;22.30;1.00
9167;DHT22;4618;48.818;9.088;2023-05-15T09:02:52;21.60;1.00
9167;DHT22;4618;48.818;9.088;2023-05-15T09:05:18;21.70;1.00
9167;DHT22;4618;48.818;9.088;2023-05-15T09:07:45;21.70;1.00
9167;DHT22;4618;48.818;9.088;2023-05-15T09:10:13;21.60;1.00
9167;DHT22;4618;48.818;9.088;2023-05-15T09:12:43;21.60;1.00
9167;DHT22;4618;48.818;9.088;2023-05-15T09:15:12;21.60;1.00
9167;DHT22;4618;48.818;9.088;2023-05-15T09:17:38;21.60;1.00
9167;DHT22;4618;48.818;9.088;2023-05-15T09:20:05;22.00;1.00
9167;DHT22;4618;48.818;9.088;2023-05-15T09:22:35;22.50;1.00
9167;DHT22;4618;48.818;9.088;2023-05-15T09:25:02;23.40;1.00
9167;DHT22;4618;48.818;9.088;2023-05-15T09:27:28;23.70;1.00
9167;DHT22;4618;48.818;9.088;2023-05-15T09:29:54;22.80;1.00
9167;DHT22;4618;48.818;9.088;2023-05-15T09:32:25;22.00;1.00
9167;DHT22;4618;48.818;9.088;2023-05-15T09:34:52;21.80;1.00
9167;DHT22;4618;48.818;9.088;2023-05-15T09:37:29;22.50;1.00
9167;DHT22;4618;48.818;9.088;2023-05-15T09:39:55;22.80;1.00
9167;DHT22;4618;48.818;9.088;2023-05-15T09:42:34;23.00;1.00
9167;DHT22;4618;48.818;9.088;2023-05-15T09:45:00;23.50;1.00
9167;DHT22;4618;48.818;9.088;2023-05-15T09:47:25;23.80;1.00
9167;DHT22;4618;48.818;9.088;2023-05-15T09:49:51;24.30;1.00
9167;DHT22;4618;48.818;9.088;2023-05-15T09:52:17;24.20;1.00
9167;DHT22;4618;48.818;9.088;2023-05-15T09:54:44;24.10;1.00
9167;DHT22;4618;48.818;9.088;2023-05-15T09:57:13;24.30;1.00
9167;DHT22;4618;48.818;9.088;2023-05-15T09:59:44;24.60;1.00
9167;DHT22;4618;48.818;9.088;2023-05-15T10:02:13;25.30;1.00
9167;DHT22;4618;48.818;9.088;2023-05-15T10:04:38;25.10;1.00
9167;DHT22;4618;48.818;9.088;2023-05-15T10:07:07;23.80;1.00
9167;DHT22;4618;48.818;9.088;2023-05-15T10:09:32;23.50;1.00
9167;DHT22;4618;48.818;9.088;2023-05-15T10:11:58;23.30;1.00
9167;DHT22;4618;48.818;9.088;2023-05-15T10:14:25;23.60;1.00
9167;DHT22;4618;48.818;9.088;2023-05-15T10:16:53;24.20;1.00
9167;DHT22;4618;48.818;9.088;2023-05-15T10:19:21;25.00;1.00
9167;DHT22;4618;48.818;9.088;2023-05-15T10:21:49;25.00;1.00
9167;DHT22;4618;48.818;9.088;2023-05-15T10:24:19;24.90;1.00
9167;DHT22;4618;48.818;9.088;2023-05-15T10:26:46;25.20;1.00
9167;DHT22;4618;48.818;9.088;2023-05-15T10:29:13;25.60;1.00
9167;DHT22;4618;48.818;9.088;2023-05-15T10:31:39;26.20;1.00
9167;DHT22;4618;48.818;9.088;2023-05-15T10:34:06;25.90;1.00
9167;DHT22;4618;48.818;9.088;2023-05-15T10:36:37;25.50;1.00
9167;DHT22;4618;48.818;9.088;2023-05-15T10:39:04;26.10;1.00
9167;DHT22;4618;48.818;9.088;2023-05-15T10:41:32;26.60;1.00
9167;DHT22;4618;48.818;9.088;2023-05-15T10:44:00;26.20;1.00
9167;DHT22;4618;48.818;9.088;2023-05-15T10:46:28;26.20;1.00
9167;DHT22;4618;48.818;9.088;2023-05-15T10:48:55;26.10;1.00
9167;DHT22;4618;48.818;9.088;2023-05-15T10:53:52;26.80;1.00
9167;DHT22;4618;48.818;9.088;2023-05-15T10:56:18;27.20;1.00
9167;DHT22;4618;48.818;9.088;2023-05-15T10:58:53;27.50;1.00
9167;DHT22;4618;48.818;9.088;2023-05-15T11:01:30;27.10;1.00
9167;DHT22;4618;48.818;9.088;2023-05-15T11:06:34;27.00;1.00
9167;DHT22;4618;48.818;9.088;2023-05-15T11:14:20;27.50;1.00
9167;DHT22;4618;48.818;9.088;2023-05-15T12:06:40;26.80;1.00
9167;DHT22;4618;48.818;9.088;2023-05-15T12:09:12;28.30;1.00
9167;DHT22;4618;48.818;9.088;2023-05-15T12:11:38;29.70;1.00
9167;DHT22;4618;48.818;9.088;2023-05-15T12:14:04;29.50;1.00
9167;DHT22;4618;48.818;9.088;2023-05-15T12:16:29;29.10;1.00
9167;DHT22;4618;48.818;9.088;2023-05-15T12:18:56;28.50;1.00
9167;DHT22;4618;48.818;9.088;2023-05-15T12:21:21;28.90;1.00
9167;DHT22;4618;48.818;9.088;2023-05-15T12:23:51;28.80;1.00
9167;DHT22;4618;48.818;9.088;2023-05-15T12:26:20;28.60;1.00
9167;DHT22;4618;48.818;9.088;2023-05-15T12:28:47;28.80;1.00
9167;DHT22;4618;48.818;9.088;2023-05-15T12:31:14;28.30;38.30
9167;DHT22;4618;48.818;9.088;2023-05-15T12:33:42;27.20;57.20
9167;DHT22;4618;48.818;9.088;2023-05-15T12:36:08;25.70;97.10
9167;DHT22;4618;48.818;9.088;2023-05-15T12:38:35;24.30;28.00
9167;DHT22;4618;48.818;9.088;2023-05-15T12:41:00;24.00;25.50
9167;DHT22;4618;48.818;9.088;2023-05-15T12:43:26;25.80;1.00
9167;DHT22;4618;48.818;9.088;2023-05-15T12:45:53;27.10;1.00
9167;DHT22;4618;48.818;9.088;2023-05-15T12:48:19;27.10;1.00
9167;DHT22;4618;48.818;9.088;2023-05-15T12:50:45;25.80;1.00
9167;DHT22;4618;48.818;9.088;2023-05-15T12:53:15;24.40;1.00
9167;DHT22;4618;48.818;9.088;2023-05-15T12:55:43;23.40;1.00
9167;DHT22;4618;48.818;9.088;2023-05-15T12:58:10;23.40;1.00
9167;DHT22;4618;48.818;9.088;2023-05-15T13:00:39;24.50;1.00
9167;DHT22;4618;48.818;9.088;2023-05-15T13:03:10;24.80;1.00
9167;DHT22;4618;48.818;9.088;2023-05-15T13:05:36;24.00;1.00
9167;DHT22;4618;48.818;9.088;2023-05-15T13:08:04;23.00;4.40
9167;DHT22;4618;48.818;9.088;2023-05-15T13:10:35;22.50;1.00
9167;DHT22;4618;48.818;9.088;2023-05-15T13:13:01;22.50;1.00
9167;DHT22;4618;48.818;9.088;2023-05-15T13:15:32;22.30;1.00
9167;DHT22;4618;48.818;9.088;2023-05-15T13:18:08;21.90;1.00
9167;DHT22;4618;48.818;9.088;2023-05-15T13:20:49;21.60;1.00
9167;DHT22;4618;48.818;9.088;2023-05-15T13:23:20;21.10;1.00
9167;DHT22;4618;48.818;9.088;2023-05-15T13:25:46;21.20;1.00
9167;DHT22;4618;48.818;9.088;2023-05-15T13:28:12;21.20;1.00
9167;DHT22;4618;48.818;9.088;2023-05-15T13:30:39;21.50;1.00
9167;DHT22;4618;48.818;9.088;2023-05-15T13:33:06;21.90;1.00
9167;DHT22;4618;48.818;9.088;2023-05-15T13:35:32;21.90;1.00
9167;DHT22;4618;48.818;9.088;2023-05-15T13:37:58;22.00;1.00
9167;DHT22;4618;48.818;9.088;2023-05-15T13:40:24;22.20;1.00
9167;DHT22;4618;48.818;9.088;2023-05-15T13:42:50;22.10;1.00
9167;DHT22;4618;48.818;9.088;2023-05-15T13:45:15;21.30;30.20
9167;DHT22;4618;48.818;9.088;2023-05-15T13:47:42;20.60;99.90
9167;DHT22;4618;48.818;9.088;2023-05-15T13:50:15;20.20;99.90
9167;DHT22;4618;48.818;9.088;2023-05-15T13:52:42;20.30;99.90
9167;DHT22;4618;48.818;9.088;2023-05-15T13:55:08;22.20;99.90
9167;DHT22;4618;48.818;9.088;2023-05-15T13:57:38;22.70;15.50
9167;DHT22;4618;48.818;9.088;2023-05-15T14:00:05;21.90;1.00
9167;DHT22;4618;48.818;9.088;2023-05-15T14:02:32;21.90;1.00
9167;DHT22;4618;48.818;9.088;2023-05-15T14:04:58;22.10;1.00
9167;DHT22;4618;48.818;9.088;2023-05-15T14:07:24;22.60;1.00
9167;DHT22;4618;48.818;9.088;2023-05-15T14:09:50;23.10;1.00
9167;DHT22;4618;48.818;9.088;2023-05-15T14:12:16;22.70;1.00
9167;DHT22;4618;48.818;9.088;2023-05-15T14:14:41;22.50;1.00
9167;DHT22;4618;48.818;9.088;2023-05-15T14:17:09;22.70;1.00
9167;DHT22;4618;48.818;9.088;2023-05-15T14:19:35;22.80;1.00
9167;DHT22;4618;48.818;9.088;2023-05-15T14:22:00;22.90;1.00
9167;DHT22;4618;48.818;9.088;2023-05-15T14:24:26;23.10;1.00
9167;DHT22;4618;48.818;9.088;2023-05-15T14:26:51;23.10;1.00
9167;DHT22;4618;48.818;9.088;2023-05-15T14:29:17;22.70;1.00
9167;DHT22;4618;48.818;9.088;2023-05-15T14:31:42;22.50;1.00
9167;DHT22;4618;48.818;9.088;2023-05-15T14:34:08;23.00;1.00
9167;DHT22;4618;48.818;9.088;2023-05-15T14:36:34;23.10;1.00
9167;DHT22;4618;48.818;9.088;2023-05-15T14:38:59;23.10;1.00
9167;DHT22;4618;48.818;9.088;2023-05-15T14:41:25;22.90;1.00
9167;DHT22;4618;48.818;9.088;2023-05-15T14:43:51;23.20;1.00
9167;DHT22;4618;48.818;9.088;2023-05-15T14:46:16;24.10;1.00
9167;DHT22;4618;48.818;9.088;2023-05-15T14:48:42;24.70;1.00
9167;DHT22;4618;48.818;9.088;2023-05-15T14:51:07;25.10;1.00
9167;DHT22;4618;48.818;9.088;2023-05-15T14:53:33;26.00;1.00
9167;DHT22;4618;48.818;9.088;2023-05-15T14:55:59;24.30;1.00
9167;DHT22;4618;48.818;9.088;2023-05-15T14:58:25;21.80;1.00
9167;DHT22;4618;48.818;9.088;2023-05-15T15:00:50;20.30;1.00
9167;DHT22;4618;48.818;9.088;2023-05-15T15:03:16;19.20;1.00
9167;DHT22;4618;48.818;9.088;2023-05-15T15:05:43;18.70;1.00
9167;DHT22;4618;48.818;9.088;2023-05-15T15:08:09;18.30;1.00
9167;DHT22;4618;48.818;9.088;2023-05-15T15:10:35;18.10;1.00
9167;DHT22;4618;48.818;9.088;2023-05-15T15:13:01;18.10;1.00
9167;DHT22;4618;48.818;9.088;2023-05-15T15:15:27;18.00;1.00
9167;DHT22;4618;48.818;9.088;2023-05-15T15:17:54;17.90;1.00
9167;DHT22;4618;48.818;9.088;2023-05-15T15:20:19;17.80;1.00
9167;DHT22;4618;48.818;9.088;2023-05-15T15:22:45;17.70;1.00
9167;DHT22;4618;48.818;9.088;2023-05-15T15:25:11;17.60;1.00
9167;DHT22;4618;48.818;9.088;2023-05-15T15:27:36;17.60;1.00
9167;DHT22;4618;48.818;9.088;2023-05-15T15:30:02;17.60;3.50
9167;DHT22;4618;48.818;9.088;2023-05-15T15:32:28;17.60;57.70
9167;DHT22;4618;48.818;9.088;2023-05-15T15:34:55;17.70;73.80
9167;DHT22;4618;48.818;9.088;2023-05-15T15:37:20;17.50;99.90
9167;DHT22;4618;48.818;9.088;2023-05-15T15:39:46;17.20;99.90
9167;DHT22;4618;48.818;9.088;2023-05-15T15:42:11;16.90;99.90
9167;DHT22;4618;48.818;9.088;2023-05-15T15:44:37;16.80;99.90
9167;DHT22;4618;48.818;9.088;2023-05-15T15:47:02;16.80;1.00
9167;DHT22;4618;48.818;9.088;2023-05-15T15:49:29;16.70;1.00
9167;DHT22;4618;48.818;9.088;2023-05-15T15:51:54;16.60;1.00
9167;DHT22;4618;48.818;9.088;2023-05-15T15:54:20;16.60;99.90
9167;DHT22;4618;48.818;9.088;2023-05-15T15:56:45;16.70;99.90
9167;DHT22;4618;48.818;9.088;2023-05-15T15:59:15;16.40;1.00
9167;DHT22;4618;48.818;9.088;2023-05-15T16:01:40;16.10;99.90
9167;DHT22;4618;48.818;9.088;2023-05-15T16:04:06;16.00;99.90
9167;DHT22;4618;48.818;9.088;2023-05-15T16:06:32;15.90;1.00
9167;DHT22;4618;48.818;9.088;2023-05-15T16:08:57;15.70;1.00
9167;DHT22;4618;48.818;9.088;2023-05-15T16:11:23;15.60;1.00
9167;DHT22;4618;48.818;9.088;2023-05-15T16:13:48;15.50;99.90
9167;DHT22;4618;48.818;9.088;2023-05-15T16:16:14;15.40;99.90
9167;DHT22;4618;48.818;9.088;2023-05-15T16:18:39;15.20;13.50
9167;DHT22;4618;48.818;9.088;2023-05-15T16:21:05;15.10;1.00
9167;DHT22;4618;48.818;9.088;2023-05-15T16:23:34;15.00;1.00
9167;DHT22;4618;48.818;9.088;2023-05-15T16:25:59;14.90;1.00
9167;DHT22;4618;48.818;9.088;2023-05-15T16:28:26;14.80;1.00
9167;DHT22;4618;48.818;9.088;2023-05-15T16:30:51;14.70;1.00
9167;DHT22;4618;48.818;9.088;2023-05-15T16:33:17;14.50;1.00
9167;DHT22;4618;48.818;9.088;2023-05-15T16:35:42;14.30;99.90
9167;DHT22;4618;48.818;9.088;2023-05-15T16:38:08;14.00;99.90
9167;DHT22;4618;48.818;9.088;2023-05-15T16:40:33;13.70;25.50
9167;DHT22;4618;48.818;9.088;2023-05-15T16:42:59;13.60;99.90
9167;DHT22;4618;48.818;9.088;2023-05-15T16:45:25;13.50;99.90
9167;DHT22;4618;48.818;9.088;2023-05-15T16:47:50;13.50;1.00
9167;DHT22;4618;48.818;9.088;2023-05-15T16:50:16;13.50;1.00
9167;DHT22;4618;48.818;9.088;2023-05-15T16:52:41;13.50;99.90
9167;DHT22;4618;48.818;9.088;2023-05-15T16:55:11;13.90;1.00
9167;DHT22;4618;48.818;9.088;2023-05-15T16:57:37;14.10;1.00
9167;DHT22;4618;48.818;9.088;2023-05-15T17:00:04;14.40;1.00
9167;DHT22;4618;48.818;9.088;2023-05-15T17:02:30;14.60;1.00
9167;DHT22;4618;48.818;9.088;2023-05-15T17:04:56;14.70;99.90
9167;DHT22;4618;48.818;9.088;2023-05-15T17:07:21;14.70;1.00
9167;DHT22;4618;48.818;9.088;2023-05-15T17:09:46;14.80;25.80
9167;DHT22;4618;48.818;9.088;2023-05-15T17:12:12;14.90;1.00
9167;DHT22;4618;48.818;9.088;2023-05-15T17:14:37;15.50;1.00
9167;DHT22;4618;48.818;9.088;2023-05-15T17:17:03;16.20;1.00
9167;DHT22;4618;48.818;9.088;2023-05-15T17:19:29;16.40;99.90
9167;DHT22;4618;48.818;9.088;2023-05-15T17:21:55;16.00;99.90
9167;DHT22;4618;48.818;9.088;2023-05-15T17:24:20;15.70;1.00